East Chatham, New York
Current Conditions -  °F | °C
As of 10:54 PM on Friday 19 Dec 2014 (Local Time) from KPSF Reporting Station
Overcast Overcast  
Wind Chill: 16°   Ceiling: 1400
Heat Index: 24°   Visibility: 10mi
Dew Point: 19°   Wind: 7mph
Humidity: 81%   Direction: 340°NNW
Pressure: 30.1"   Gusts: NA
Location:  42.41°N, 73.52°W
Report Text: KPSF 200354Z AUTO 34006KT 10SM OVC014 M04/M07 A3010 RMK AO2 SLP207 T10441072
Loading
Personal Weather Stations






























Interactive Weather Map New forecast layout! Learn more

10-Day Weather Forecast

Advertisements
Track Severe Weather on mobile